createdAt,value
2019-02-08T00:00:29.005Z,91.00
2019-02-08T00:02:57.269Z,90.60
2019-02-08T00:05:25.532Z,90.30
2019-02-08T00:07:53.802Z,90.20
2019-02-08T00:10:22.114Z,90.20
2019-02-08T00:12:50.391Z,90.10
2019-02-08T00:15:22.888Z,90.00
2019-02-08T00:17:51.169Z,89.70
2019-02-08T00:20:20.255Z,89.60
2019-02-08T00:22:48.502Z,89.30
2019-02-08T00:25:20.898Z,89.20
2019-02-08T00:27:49.236Z,89.00
2019-02-08T00:30:20.964Z,89.00
2019-02-08T00:32:49.318Z,89.00
2019-02-08T00:35:17.610Z,89.20
2019-02-08T00:37:45.837Z,90.00
2019-02-08T00:40:16.599Z,90.00
2019-02-08T00:42:44.853Z,90.00
2019-02-08T00:45:23.406Z,90.00
2019-02-08T00:47:51.662Z,90.00
2019-02-08T00:50:24.931Z,90.20
2019-02-08T00:52:53.229Z,90.30
2019-02-08T00:55:21.474Z,90.40
2019-02-08T00:57:49.745Z,90.60
2019-02-08T01:00:18.473Z,90.00
2019-02-08T01:02:48.046Z,89.60
2019-02-08T01:05:20.591Z,89.00
2019-02-08T01:07:48.852Z,89.00
2019-02-08T01:10:33.348Z,89.00
2019-02-08T01:13:02.462Z,89.10
2019-02-08T01:15:31.557Z,88.90
2019-02-08T01:17:59.886Z,88.40
2019-02-08T01:20:28.134Z,88.80
2019-02-08T01:22:56.407Z,89.10
2019-02-08T01:25:27.255Z,88.70
2019-02-08T01:27:55.496Z,88.30
2019-02-08T01:30:33.826Z,88.00
2019-02-08T01:33:02.155Z,87.50
2019-02-08T01:35:30.395Z,88.30
2019-02-08T01:37:59.816Z,88.10
2019-02-08T01:40:31.301Z,88.30
2019-02-08T01:42:59.560Z,88.40
2019-02-08T01:45:30.434Z,88.50
2019-02-08T01:47:58.766Z,88.50
2019-02-08T01:50:28.873Z,88.50
2019-02-08T01:52:57.099Z,88.50
2019-02-08T01:55:25.365Z,88.50
2019-02-08T01:57:53.594Z,88.50
2019-02-08T02:00:27.300Z,88.80
2019-02-08T02:02:55.593Z,88.80
2019-02-08T02:05:23.843Z,89.00
2019-02-08T02:07:52.069Z,89.10
2019-02-08T02:10:28.786Z,89.20
2019-02-08T02:12:57.079Z,89.30
2019-02-08T02:15:25.322Z,89.80
2019-02-08T02:17:53.574Z,90.10
2019-02-08T02:20:30.308Z,90.10
2019-02-08T02:22:58.569Z,90.20
2019-02-08T02:25:26.823Z,90.20
2019-02-08T02:27:55.070Z,90.50
2019-02-08T02:30:31.530Z,90.80
2019-02-08T02:32:59.866Z,91.00
2019-02-08T02:35:28.106Z,91.20
2019-02-08T02:37:56.426Z,91.20
2019-02-08T02:40:24.694Z,91.30
2019-02-08T02:42:52.947Z,91.50
2019-02-08T02:45:26.729Z,91.50
2019-02-08T02:47:55.143Z,91.60
2019-02-08T02:50:23.370Z,91.30
2019-02-08T02:52:51.598Z,91.30
2019-02-08T02:55:22.588Z,91.30
2019-02-08T02:57:50.820Z,91.40
2019-02-08T03:00:24.721Z,91.30
2019-02-08T03:02:52.950Z,91.10
2019-02-08T03:05:21.225Z,90.80
2019-02-08T03:07:49.478Z,90.70
2019-02-08T03:10:19.766Z,90.60
2019-02-08T03:12:48.001Z,90.50
2019-02-08T03:15:20.553Z,90.50
2019-02-08T03:17:50.496Z,90.40
2019-02-08T03:20:20.283Z,90.40
2019-02-08T03:22:48.552Z,90.50
2019-02-08T03:25:27.469Z,90.50
2019-02-08T03:27:55.698Z,90.60
2019-02-08T03:30:29.862Z,90.40
2019-02-08T03:32:58.125Z,90.30
2019-02-08T03:35:26.929Z,90.40
2019-02-08T03:37:56.440Z,90.10
2019-02-08T03:40:31.315Z,89.90
2019-02-08T03:42:59.563Z,89.60
2019-02-08T03:45:29.433Z,90.00
2019-02-08T03:47:57.698Z,90.10
2019-02-08T03:50:25.997Z,90.50
2019-02-08T03:52:54.743Z,90.20
2019-02-08T03:55:23.813Z,90.20
2019-02-08T03:57:52.045Z,90.30
2019-02-08T04:00:30.136Z,90.30
2019-02-08T04:02:58.518Z,90.20
2019-02-08T04:05:26.745Z,90.00
2019-02-08T04:07:55.001Z,90.00
2019-02-08T04:10:23.257Z,89.90
2019-02-08T04:12:51.506Z,89.70
2019-02-08T04:15:22.274Z,89.90
2019-02-08T04:17:50.590Z,89.50
2019-02-08T04:20:21.431Z,90.00
2019-02-08T04:22:49.677Z,90.00
2019-02-08T04:25:18.298Z,90.10
2019-02-08T04:27:46.542Z,90.10
2019-02-08T04:30:23.419Z,90.30
2019-02-08T04:32:51.672Z,90.20
2019-02-08T04:35:19.928Z,90.00
2019-02-08T04:37:48.151Z,89.40
2019-02-08T04:40:20.854Z,89.30
2019-02-08T04:42:49.384Z,89.20
2019-02-08T04:45:17.631Z,88.80
2019-02-08T04:47:45.880Z,88.70
2019-02-08T04:50:16.668Z,88.50
2019-02-08T04:52:44.923Z,88.40
2019-02-08T04:55:13.173Z,88.20
2019-02-08T04:57:41.509Z,88.30
2019-02-08T05:00:19.161Z,88.30
2019-02-08T05:02:47.416Z,88.10
2019-02-08T05:05:15.640Z,88.20
2019-02-08T05:07:43.909Z,88.10
2019-02-08T05:10:15.537Z,88.00
2019-02-08T05:12:43.784Z,87.90
2019-02-08T05:15:12.469Z,88.10
2019-02-08T05:17:40.705Z,88.30
2019-02-08T05:20:14.824Z,88.10
2019-02-08T05:22:43.052Z,88.10
2019-02-08T05:25:11.374Z,88.10
2019-02-08T05:27:39.615Z,88.30
2019-02-08T05:30:14.025Z,88.50
2019-02-08T05:32:42.277Z,88.50
2019-02-08T05:35:10.893Z,89.00
2019-02-08T05:37:39.126Z,89.30
2019-02-08T05:40:16.046Z,89.10
2019-02-08T05:42:44.278Z,89.20
2019-02-08T05:45:15.269Z,89.10
2019-02-08T05:47:43.507Z,89.00
2019-02-08T05:50:14.696Z,89.50
2019-02-08T05:52:42.945Z,88.50
2019-02-08T05:55:14.149Z,88.60
2019-02-08T05:57:42.381Z,88.60
2019-02-08T06:00:26.956Z,88.90
2019-02-08T06:02:55.222Z,88.90
2019-02-08T06:05:23.882Z,88.80
2019-02-08T06:07:52.125Z,88.80
2019-02-08T06:10:20.368Z,89.00
2019-02-08T06:12:48.611Z,89.00
2019-02-08T06:15:22.161Z,89.50
2019-02-08T06:17:50.424Z,89.50
2019-02-08T06:20:23.744Z,89.30
2019-02-08T06:22:51.973Z,89.20
2019-02-08T06:25:21.291Z,89.10
2019-02-08T06:27:49.713Z,89.30
2019-02-08T06:30:26.493Z,89.30
2019-02-08T06:32:54.733Z,89.50
2019-02-08T06:35:24.439Z,89.40
2019-02-08T06:37:52.698Z,89.40
2019-02-08T06:40:23.650Z,87.90
2019-02-08T06:42:51.881Z,87.90
2019-02-08T06:45:22.089Z,87.70
2019-02-08T06:47:50.309Z,87.00
2019-02-08T06:50:23.352Z,86.90
2019-02-08T06:52:51.595Z,87.40
2019-02-08T06:55:19.920Z,87.50
2019-02-08T06:57:49.815Z,87.30
2019-02-08T07:00:25.178Z,87.30
2019-02-08T07:03:11.775Z,87.90
2019-02-08T07:06:00.013Z,87.70
2019-02-08T07:08:32.423Z,87.50
2019-02-08T07:11:14.093Z,87.40
2019-02-08T07:13:52.804Z,87.20
2019-02-08T07:16:38.891Z,87.10
2019-02-08T07:19:25.283Z,87.40
2019-02-08T07:21:56.819Z,88.20
2019-02-08T07:24:26.694Z,88.10
2019-02-08T07:27:02.612Z,88.50
2019-02-08T07:29:50.573Z,88.30
2019-02-08T07:32:20.462Z,88.60
2019-02-08T07:34:50.351Z,88.70
2019-02-08T07:37:20.213Z,89.20
2019-02-08T07:39:53.557Z,88.60
2019-02-08T07:42:40.002Z,88.70
2019-02-08T07:45:19.842Z,88.00
2019-02-08T07:48:01.944Z,87.80
2019-02-08T07:50:43.543Z,87.70
2019-02-08T07:53:29.815Z,87.30
2019-02-08T07:56:16.150Z,87.10
2019-02-08T07:58:55.162Z,86.80
2019-02-08T08:01:25.077Z,86.70
2019-02-08T08:04:01.223Z,86.70
2019-02-08T08:06:29.665Z,86.60
2019-02-08T08:09:17.635Z,86.60
2019-02-08T08:11:47.537Z,86.60
2019-02-08T08:14:17.448Z,86.30
2019-02-08T08:17:03.781Z,85.90
2019-02-08T08:19:36.632Z,85.20
2019-02-08T08:22:06.505Z,85.10
2019-02-08T08:24:45.722Z,84.30
2019-02-08T08:27:18.398Z,84.50
2019-02-08T08:29:49.473Z,83.30
2019-02-08T08:32:19.342Z,82.90
2019-02-08T08:35:12.157Z,82.70
2019-02-08T08:38:13.270Z,82.20
2019-02-08T08:41:04.284Z,81.60
2019-02-08T08:43:41.556Z,81.70
2019-02-08T08:46:29.790Z,80.40
2019-02-08T08:49:16.369Z,80.10
2019-02-08T08:51:53.802Z,79.70
2019-02-08T08:54:28.074Z,79.20
2019-02-08T08:57:05.693Z,79.90
2019-02-08T08:59:43.055Z,79.30
2019-02-08T09:02:36.002Z,79.30
2019-02-08T09:05:25.070Z,78.80
2019-02-08T09:08:08.516Z,78.30
2019-02-08T09:11:07.553Z,78.20
2019-02-08T09:13:51.348Z,78.00
2019-02-08T09:16:43.747Z,77.10
2019-02-08T09:19:50.255Z,76.90
2019-02-08T09:22:39.536Z,76.60
2019-02-08T09:25:25.812Z,76.40
2019-02-08T09:28:13.673Z,76.10
2019-02-08T09:31:04.617Z,76.30
2019-02-08T09:34:09.399Z,75.70
2019-02-08T09:36:47.748Z,75.30
2019-02-08T09:39:48.310Z,74.50
2019-02-08T09:42:25.946Z,73.30
2019-02-08T09:45:00.342Z,73.10
2019-02-08T09:48:09.960Z,72.70
2019-02-08T09:50:53.227Z,71.30
2019-02-08T09:53:27.602Z,71.00
2019-02-08T09:56:27.318Z,70.50
2019-02-08T09:59:24.625Z,70.00
2019-02-08T10:02:02.837Z,67.60
2019-02-08T10:04:46.535Z,68.20
2019-02-08T10:07:34.837Z,67.50
2019-02-08T10:10:12.101Z,66.40
2019-02-08T10:13:00.070Z,67.00
2019-02-08T10:16:11.925Z,65.30
2019-02-08T10:19:17.565Z,64.80
2019-02-08T10:22:11.820Z,64.60
2019-02-08T10:25:11.951Z,63.50
2019-02-08T10:28:03.039Z,63.50
2019-02-08T10:30:43.089Z,63.70
2019-02-08T10:33:37.105Z,62.40
2019-02-08T10:36:17.448Z,61.30
2019-02-08T10:39:08.001Z,61.80
2019-02-08T10:41:48.267Z,62.10
2019-02-08T10:44:42.402Z,60.40
2019-02-08T10:47:25.998Z,60.00
2019-02-08T10:50:30.839Z,59.50
2019-02-08T10:53:20.277Z,59.70
2019-02-08T10:56:00.554Z,59.10
2019-02-08T10:58:32.099Z,57.30
2019-02-08T11:01:41.761Z,57.40
2019-02-08T11:04:43.446Z,56.60
2019-02-08T11:07:28.176Z,57.00
2019-02-08T11:10:14.912Z,56.20
2019-02-08T11:13:07.524Z,54.80
2019-02-08T11:15:59.929Z,54.40
2019-02-08T11:18:49.535Z,52.60
2019-02-08T11:21:17.797Z,52.70
2019-02-08T11:23:46.116Z,53.80
2019-02-08T11:26:14.382Z,54.60
2019-02-08T11:28:42.635Z,53.40
2019-02-08T11:31:10.874Z,53.40
2019-02-08T11:33:39.121Z,53.50
2019-02-08T11:36:07.391Z,52.50
2019-02-08T11:38:35.642Z,51.80
2019-02-08T11:41:03.922Z,52.50
2019-02-08T11:43:32.246Z,51.90
2019-02-08T11:46:00.664Z,52.20
2019-02-08T11:48:28.898Z,51.70
2019-02-08T11:50:57.154Z,52.60
2019-02-08T11:53:25.409Z,52.30
2019-02-08T11:55:53.676Z,51.80
2019-02-08T11:58:21.919Z,51.70
2019-02-08T12:00:51.827Z,52.00
2019-02-08T12:03:20.151Z,52.90
2019-02-08T12:05:48.872Z,52.90
2019-02-08T12:08:17.122Z,52.70
2019-02-08T12:10:45.364Z,52.70
2019-02-08T12:13:13.621Z,52.40
2019-02-08T12:15:41.850Z,53.00
2019-02-08T12:18:10.119Z,51.90
2019-02-08T12:20:38.383Z,51.00
2019-02-08T12:23:06.692Z,51.70
2019-02-08T12:25:34.951Z,51.50
2019-02-08T12:28:03.225Z,52.30
2019-02-08T12:30:34.472Z,52.50
2019-02-08T12:33:02.717Z,53.00
2019-02-08T12:35:30.970Z,53.00
2019-02-08T12:37:59.234Z,52.60
2019-02-08T12:40:27.478Z,52.20
2019-02-08T12:42:55.765Z,52.30
2019-02-08T12:45:23.998Z,52.20
2019-02-08T12:47:52.233Z,52.40
2019-02-08T12:50:20.499Z,53.20
2019-02-08T12:52:48.747Z,53.60
2019-02-08T12:55:18.624Z,52.80
2019-02-08T12:57:46.906Z,54.10
2019-02-08T13:00:23.525Z,54.10
2019-02-08T13:02:51.786Z,54.60
2019-02-08T13:05:20.384Z,53.80
2019-02-08T13:07:48.650Z,54.60
2019-02-08T13:10:30.475Z,53.80
2019-02-08T13:12:58.838Z,54.60
2019-02-08T13:15:27.083Z,55.60
2019-02-08T13:17:55.342Z,54.40
2019-02-08T13:20:24.359Z,53.80
2019-02-08T13:22:52.732Z,54.10
2019-02-08T13:25:20.975Z,54.20
2019-02-08T13:27:49.281Z,54.90
2019-02-08T13:30:29.000Z,54.40
2019-02-08T13:32:57.243Z,53.20
2019-02-08T13:35:25.658Z,53.10
2019-02-08T13:37:53.893Z,52.50
2019-02-08T13:40:28.048Z,54.10
2019-02-08T13:42:56.352Z,54.10
2019-02-08T13:45:24.608Z,54.60
2019-02-08T13:47:52.858Z,54.40
2019-02-08T13:50:26.001Z,53.30
2019-02-08T13:52:54.276Z,54.00
2019-02-08T13:55:23.949Z,54.40
2019-02-08T13:57:52.238Z,55.20
2019-02-08T14:00:26.873Z,54.00
2019-02-08T14:02:55.104Z,54.40
2019-02-08T14:05:23.410Z,54.00
2019-02-08T14:07:51.649Z,53.30
2019-02-08T14:10:20.921Z,53.50
2019-02-08T14:12:49.185Z,52.70
2019-02-08T14:15:41.879Z,51.70
2019-02-08T14:18:10.155Z,52.80
2019-02-08T14:20:38.386Z,53.40
2019-02-08T14:23:06.618Z,54.40
2019-02-08T14:25:34.874Z,54.70
2019-02-08T14:28:03.126Z,54.60
2019-02-08T14:30:40.375Z,54.80
2019-02-08T14:33:08.613Z,54.60
2019-02-08T14:35:36.864Z,54.50
2019-02-08T14:38:07.957Z,55.00
2019-02-08T14:40:36.223Z,56.00
2019-02-08T14:43:04.755Z,56.00
2019-02-08T14:45:33.002Z,56.40
2019-02-08T14:48:01.241Z,56.80
2019-02-08T14:50:30.226Z,56.20
2019-02-08T14:52:58.660Z,54.00
2019-02-08T14:55:26.907Z,54.30
2019-02-08T14:57:57.971Z,54.80
2019-02-08T15:00:26.251Z,54.90
2019-02-08T15:02:54.486Z,55.40
2019-02-08T15:05:23.297Z,56.10
2019-02-08T15:07:51.552Z,55.80
2019-02-08T15:10:31.953Z,55.50
2019-02-08T15:13:00.458Z,56.10
2019-02-08T15:15:28.805Z,57.40
2019-02-08T15:17:57.058Z,57.60
2019-02-08T15:20:33.462Z,56.60
2019-02-08T15:23:01.026Z,56.60
2019-02-08T15:25:29.272Z,56.70
2019-02-08T15:27:57.528Z,57.20
2019-02-08T15:30:36.494Z,58.50
2019-02-08T15:33:05.738Z,59.30
2019-02-08T15:35:35.133Z,59.90
2019-02-08T15:38:04.695Z,60.80
2019-02-08T15:40:47.179Z,60.40
2019-02-08T15:43:17.588Z,60.60
2019-02-08T15:45:54.933Z,60.60
2019-02-08T15:48:23.433Z,61.40
2019-02-08T15:50:51.748Z,62.20
2019-02-08T15:53:20.031Z,61.80
2019-02-08T15:55:51.578Z,62.80
2019-02-08T15:58:19.889Z,62.70
2019-02-08T16:00:48.485Z,63.60
2019-02-08T16:03:16.924Z,63.20
2019-02-08T16:05:45.386Z,63.50
2019-02-08T16:08:13.714Z,63.70
2019-02-08T16:10:42.215Z,63.50
2019-02-08T16:13:10.495Z,64.40
2019-02-08T16:15:38.924Z,64.50
2019-02-08T16:18:07.400Z,64.50
2019-02-08T16:20:35.897Z,64.80
2019-02-08T16:23:04.412Z,64.60
2019-02-08T16:25:32.945Z,64.90
2019-02-08T16:28:01.312Z,65.40
2019-02-08T16:30:36.800Z,66.20
2019-02-08T16:33:06.955Z,66.90
2019-02-08T16:35:35.335Z,66.60
2019-02-08T16:38:03.889Z,66.60
2019-02-08T16:40:32.304Z,66.60
2019-02-08T16:43:00.674Z,66.70
2019-02-08T16:45:35.161Z,67.10
2019-02-08T16:48:05.826Z,67.00
2019-02-08T16:50:34.645Z,67.30
2019-02-08T16:53:02.953Z,67.70
2019-02-08T16:55:31.334Z,67.80
2019-02-08T16:57:59.739Z,68.30
2019-02-08T17:00:33.150Z,68.40
2019-02-08T17:03:03.125Z,69.00
2019-02-08T17:05:31.436Z,69.10
2019-02-08T17:07:59.675Z,68.90
2019-02-08T17:10:27.917Z,69.20
2019-02-08T17:12:56.154Z,69.30
2019-02-08T17:15:26.342Z,69.60
2019-02-08T17:17:54.575Z,69.50
2019-02-08T17:20:31.524Z,70.00
2019-02-08T17:22:59.805Z,70.20
2019-02-08T17:25:28.107Z,71.00
2019-02-08T17:27:56.391Z,69.90
2019-02-08T17:30:24.780Z,70.10
2019-02-08T17:32:53.044Z,70.30
2019-02-08T17:35:23.669Z,70.60
2019-02-08T17:37:51.993Z,71.20
2019-02-08T17:40:22.946Z,72.10
2019-02-08T17:42:51.225Z,71.70
2019-02-08T17:45:20.708Z,71.80
2019-02-08T17:47:49.591Z,71.60
2019-02-08T17:50:23.235Z,71.80
2019-02-08T17:52:51.605Z,71.90
2019-02-08T17:55:24.658Z,72.30
2019-02-08T17:57:53.089Z,72.00
2019-02-08T18:00:40.258Z,72.20
2019-02-08T18:03:08.507Z,72.40
2019-02-08T18:05:36.772Z,72.50
2019-02-08T18:08:05.547Z,72.80
2019-02-08T18:10:33.804Z,72.60
2019-02-08T18:13:03.526Z,72.50
2019-02-08T18:15:32.069Z,73.00
2019-02-08T18:18:00.458Z,72.90
2019-02-08T18:20:40.234Z,72.60
2019-02-08T18:23:08.521Z,72.10
2019-02-08T18:25:36.900Z,72.70
2019-02-08T18:28:10.876Z,72.80
2019-02-08T18:30:35.229Z,72.90
2019-02-08T18:33:03.561Z,73.10
2019-02-08T18:35:31.869Z,73.10
2019-02-08T18:38:00.183Z,72.60
2019-02-08T18:40:28.422Z,72.60
2019-02-08T18:42:56.654Z,72.50
2019-02-08T18:45:32.066Z,73.00
2019-02-08T18:48:00.308Z,72.40
2019-02-08T18:50:49.269Z,72.10
2019-02-08T18:53:17.497Z,71.60
2019-02-08T18:55:45.762Z,71.70
2019-02-08T18:58:19.131Z,71.40
2019-02-08T19:00:46.881Z,71.20
2019-02-08T19:03:15.247Z,71.40
2019-02-08T19:05:43.538Z,71.10
2019-02-08T19:08:11.927Z,71.00
2019-02-08T19:10:40.255Z,70.80
2019-02-08T19:13:08.567Z,70.50
2019-02-08T19:15:36.825Z,70.30
2019-02-08T19:18:05.237Z,70.30
2019-02-08T19:20:33.541Z,70.10
2019-02-08T19:23:01.875Z,70.40
2019-02-08T19:25:51.182Z,70.10
2019-02-08T19:28:26.103Z,70.10
2019-02-08T19:30:49.399Z,70.20
2019-02-08T19:33:17.722Z,70.40
2019-02-08T19:35:46.054Z,70.20
2019-02-08T19:38:14.352Z,70.10
2019-02-08T19:40:47.308Z,69.90
2019-02-08T19:43:15.571Z,69.50
2019-02-08T19:45:43.947Z,69.40
2019-02-08T19:48:12.195Z,69.00
2019-02-08T19:50:45.066Z,68.80
2019-02-08T19:53:13.334Z,69.10
2019-02-08T19:55:41.637Z,69.20
2019-02-08T19:58:10.745Z,69.50
2019-02-08T20:00:40.732Z,69.30
2019-02-08T20:03:09.333Z,68.50
2019-02-08T20:05:37.605Z,68.90
2019-02-08T20:08:06.388Z,68.30
2019-02-08T20:10:40.722Z,67.70
2019-02-08T20:13:08.992Z,67.50
2019-02-08T20:15:37.301Z,67.10
2019-02-08T20:18:05.909Z,66.00
2019-02-08T20:20:34.213Z,65.60
2019-02-08T20:23:02.500Z,65.40
2019-02-08T20:25:32.664Z,66.00
2019-02-08T20:28:00.907Z,66.40
2019-02-08T20:30:30.606Z,66.20
2019-02-08T20:32:58.824Z,66.10
2019-02-08T20:35:27.914Z,65.60
2019-02-08T20:37:56.788Z,65.20
2019-02-08T20:40:27.739Z,65.10
2019-02-08T20:42:55.970Z,64.70
2019-02-08T20:45:29.786Z,64.60
2019-02-08T20:47:59.264Z,65.00
2019-02-08T20:50:27.491Z,64.20
2019-02-08T20:52:55.731Z,64.30
2019-02-08T20:55:24.170Z,64.30
2019-02-08T20:57:52.414Z,64.60
2019-02-08T21:00:27.728Z,64.00
2019-02-08T21:02:56.609Z,64.60
2019-02-08T21:05:24.841Z,65.20
2019-02-08T21:07:53.108Z,65.10
2019-02-08T21:10:21.338Z,65.10
2019-02-08T21:12:49.660Z,65.20
2019-02-08T21:15:22.034Z,64.90
2019-02-08T21:17:50.279Z,65.00
2019-02-08T21:20:19.313Z,66.00
2019-02-08T21:22:47.579Z,67.10
2019-02-08T21:25:18.701Z,66.00
2019-02-08T21:27:47.019Z,65.30
2019-02-08T21:30:16.519Z,65.50
2019-02-08T21:32:44.782Z,65.90
2019-02-08T21:35:14.594Z,66.40
2019-02-08T21:37:42.839Z,66.60
2019-02-08T21:40:16.917Z,67.00
2019-02-08T21:42:45.175Z,66.70
2019-02-08T21:45:21.959Z,66.60
2019-02-08T21:47:50.250Z,66.40
2019-02-08T21:50:20.050Z,66.60
2019-02-08T21:52:48.291Z,66.60
2019-02-08T21:55:18.562Z,66.40
2019-02-08T21:57:46.822Z,66.10
2019-02-08T22:00:21.041Z,66.10
2019-02-08T22:02:49.281Z,66.00
2019-02-08T22:05:20.246Z,65.90
2019-02-08T22:07:48.582Z,66.70
2019-02-08T22:10:16.856Z,66.90
2019-02-08T22:12:45.097Z,67.30
2019-02-08T22:15:18.733Z,66.20
2019-02-08T22:17:46.992Z,66.00
2019-02-08T22:20:17.089Z,67.80
2019-02-08T22:22:45.421Z,67.70
2019-02-08T22:25:18.817Z,67.30
2019-02-08T22:27:47.088Z,67.00
2019-02-08T22:30:26.260Z,67.80
2019-02-08T22:32:56.445Z,68.30
2019-02-08T22:35:25.637Z,68.30
2019-02-08T22:37:53.881Z,69.30
2019-02-08T22:40:23.546Z,69.80
2019-02-08T22:42:51.802Z,70.50
2019-02-08T22:45:32.330Z,70.80
2019-02-08T22:48:00.558Z,70.60
2019-02-08T22:50:29.130Z,70.80
2019-02-08T22:52:57.445Z,71.60
2019-02-08T22:55:30.389Z,71.10
2019-02-08T22:57:58.632Z,71.50
2019-02-08T23:00:37.733Z,72.80
2019-02-08T23:03:09.053Z,74.30
2019-02-08T23:05:45.016Z,75.60
2019-02-08T23:08:09.555Z,74.60
2019-02-08T23:10:37.820Z,75.50
2019-02-08T23:13:10.366Z,76.30
2019-02-08T23:15:38.606Z,78.10
2019-02-08T23:18:11.582Z,79.70
2019-02-08T23:20:39.828Z,80.40
2019-02-08T23:23:08.073Z,80.70
2019-02-08T23:25:36.318Z,80.70
2019-02-08T23:28:04.712Z,80.30
2019-02-08T23:30:32.949Z,80.10
2019-02-08T23:33:01.216Z,80.50
2019-02-08T23:35:29.476Z,80.00
2019-02-08T23:37:57.737Z,79.30
2019-02-08T23:40:25.968Z,78.00
2019-02-08T23:42:54.227Z,76.70
2019-02-08T23:45:22.941Z,76.50
2019-02-08T23:47:51.199Z,75.60
2019-02-08T23:50:20.805Z,74.60
2019-02-08T23:52:49.080Z,71.70
2019-02-08T23:55:18.865Z,72.30
2019-02-08T23:57:47.118Z,71.80
